Terminal Aerodrome Forecast
Issued by NWS Brownsville, TX

Home | Current Version | Previous Version | Text Only | Print | Product List | Glossary On
Versions: 1 2 3 4 5 6 7 8 9 10 11 12 13 14 15 16 17 18 19 20
195
FTUS44 KBRO 111256 AAB
TAFMFE
TAF AMD
KMFE 111256Z 1113/1212 00000KT 1/4SM FG VV002
      TEMPO 1113/1115 3/4SM BR OVC004
     FM111500 18005KT 4SM BR OVC012
      TEMPO 1115/1116 2SM BR OVC008
     FM111700 18014G22KT P6SM BKN030
     FM111900 17017G24KT P6SM SCT050
     FM120000 16010KT P6SM FEW060
     FM120600 16004KT 2SM BR OVC008
      TEMPO 1209/1212 1/2SM FG OVC002=

USA.gov is the U.S. government's official web portal to all federal, state and local government web resources and services.